Time;durP1;ratioP1;P1;durP2;ratioP2;P2;SDS_P1;SDS_P2;PMS_P1;PMS_P2;Temp;Humidity;BMP_temperature;BMP_pressure;BME280_temperature;BME280_humidity;BME280_pressure;Samples;Min_cycle;Max_cycle;Signal;HPM_P1;HPM_P2
2023/10/12 00:01:23;;;;;;;16.67;2.67;;;14.00;99.90;;;;;;5097149;28;20463;-47
2023/10/12 00:03:55;;;;;;;9.80;2.60;;;13.90;99.90;;;;;;5097248;28;20456;-46
2023/10/12 00:06:20;;;;;;;10.10;2.23;;;13.80;99.90;;;;;;5097309;28;20411;-47
2023/10/12 00:08:48;;;;;;;12.93;2.37;;;13.80;99.90;;;;;;5096657;28;20422;-47
2023/10/12 00:11:19;;;;;;;7.67;2.17;;;13.70;99.90;;;;;;5096921;28;20186;-47
2023/10/12 00:13:47;;;;;;;12.27;2.73;;;13.70;99.90;;;;;;5096793;28;20418;-48
2023/10/12 00:16:18;;;;;;;11.93;2.57;;;13.60;99.90;;;;;;5096761;28;20415;-48
2023/10/12 00:18:45;;;;;;;14.73;2.90;;;13.60;99.90;;;;;;5095706;28;20431;-47
2023/10/12 00:21:15;;;;;;;7.77;2.07;;;13.60;99.90;;;;;;5096975;28;20423;-47
2023/10/12 00:23:41;;;;;;;22.43;2.80;;;13.60;99.90;;;;;;5096602;28;20514;-48
2023/10/12 00:26:07;;;;;;;10.40;2.17;;;13.60;99.90;;;;;;5096173;28;20504;-47
2023/10/12 00:28:38;;;;;;;20.90;2.47;;;13.60;99.90;;;;;;5096824;28;20419;-47
2023/10/12 00:31:12;;;;;;;11.50;2.33;;;13.60;99.90;;;;;;5096715;28;20257;-47
2023/10/12 00:33:38;;;;;;;9.30;2.37;;;13.60;99.90;;;;;;5096509;28;20414;-51
2023/10/12 00:36:09;;;;;;;15.13;2.70;;;13.60;99.90;;;;;;5096659;28;20469;-47
2023/10/12 00:38:38;;;;;;;20.40;3.00;;;13.60;99.90;;;;;;5096058;28;20422;-47
2023/10/12 00:41:04;;;;;;;18.07;3.20;;;13.60;99.90;;;;;;5096239;28;20854;-48
2023/10/12 00:43:38;;;;;;;14.63;3.20;;;13.50;99.90;;;;;;5096169;28;20499;-47
2023/10/12 00:46:32;;;;;;;12.80;2.60;;;13.40;99.90;;;;;;5096508;28;20499;-47
2023/10/12 00:49:13;;;;;;;24.57;3.80;;;13.30;99.90;;;;;;5096233;28;20426;-47
2023/10/12 00:51:37;;;;;;;21.53;3.63;;;13.20;99.90;;;;;;5095990;28;20437;-47
2023/10/12 00:54:04;;;;;;;16.23;3.47;;;13.20;99.90;;;;;;5096103;28;20422;-47
2023/10/12 00:56:30;;;;;;;18.93;3.40;;;13.20;99.90;;;;;;5096063;28;20942;-47
2023/10/12 00:58:56;;;;;;;21.03;2.80;;;13.10;99.90;;;;;;5096100;28;20415;-47
2023/10/12 01:01:23;;;;;;;19.60;3.10;;;13.10;99.90;;;;;;5096149;28;20424;-52
2023/10/12 01:03:49;;;;;;;25.07;3.80;;;12.90;99.90;;;;;;5095720;28;20938;-48
2023/10/12 01:06:27;;;;;;;14.13;2.73;;;12.80;99.90;;;;;;5096048;28;20443;-47
2023/10/12 01:08:57;;;;;;;15.97;3.40;;;12.70;99.90;;;;;;5096231;28;20414;-47
2023/10/12 01:11:26;;;;;;;15.53;3.30;;;12.60;99.90;;;;;;5096094;28;20873;-47
2023/10/12 01:16:38;;;;;;;19.17;3.80;;;12.30;99.90;;;;;;5095970;28;20432;-45
2023/10/12 01:19:07;;;;;;;15.20;3.13;;;12.30;99.90;;;;;;5096087;28;20901;-45
2023/10/12 01:21:36;;;;;;;16.63;3.10;;;12.20;99.90;;;;;;5095300;28;20418;-46
2023/10/12 01:24:11;;;;;;;9.67;2.73;;;12.20;99.90;;;;;;5095469;28;20426;-46
2023/10/12 01:26:36;;;;;;;17.63;3.63;;;12.10;99.90;;;;;;5095868;28;20402;-45
2023/10/12 01:29:02;;;;;;;12.40;3.00;;;12.10;99.90;;;;;;5095733;28;20438;-45
2023/10/12 01:31:28;;;;;;;13.37;3.17;;;12.10;99.90;;;;;;5095362;28;20506;-45
2023/10/12 01:33:55;;;;;;;21.27;3.90;;;12.10;99.90;;;;;;5095415;28;20196;-46
2023/10/12 01:36:22;;;;;;;20.07;3.63;;;12.10;99.90;;;;;;5095581;28;20425;-46
2023/10/12 01:38:50;;;;;;;20.23;3.37;;;12.10;99.90;;;;;;5095245;28;20458;-46
2023/10/12 01:41:25;;;;;;;20.47;3.10;;;12.10;99.90;;;;;;5095159;28;20903;-46
2023/10/12 01:43:52;;;;;;;26.80;3.33;;;12.10;99.90;;;;;;5095358;28;20453;-46
2023/10/12 01:46:21;;;;;;;13.67;3.60;;;12.10;99.90;;;;;;5095411;28;20806;-48
2023/10/12 01:48:49;;;;;;;14.53;3.20;;;12.00;99.90;;;;;;5095247;28;20418;-46
2023/10/12 01:51:17;;;;;;;20.13;3.33;;;12.10;99.90;;;;;;5093974;28;20421;-46
2023/10/12 01:53:42;;;;;;;20.50;3.40;;;12.00;99.90;;;;;;5095093;28;20889;-47
2023/10/12 01:56:11;;;;;;;17.43;3.37;;;12.00;99.90;;;;;;5095143;28;20503;-46
2023/10/12 01:58:40;;;;;;;26.43;4.00;;;12.10;99.90;;;;;;5095080;28;20184;-46
2023/10/12 02:01:07;;;;;;;18.47;3.63;;;12.10;99.90;;;;;;5095030;28;20422;-46
2023/10/12 02:03:37;;;;;;;28.43;2.80;;;12.10;99.90;;;;;;5094803;28;20414;-46
2023/10/12 02:06:05;;;;;;;18.40;3.90;;;12.00;99.90;;;;;;5094919;28;20421;-46
2023/10/12 02:08:33;;;;;;;18.37;3.30;;;12.10;99.90;;;;;;5094498;28;20769;-46
2023/10/12 02:11:25;;;;;;;19.67;3.83;;;12.00;99.90;;;;;;5094649;28;20445;-47
2023/10/12 02:13:54;;;;;;;13.43;2.77;;;12.00;99.90;;;;;;5094979;28;20426;-53
2023/10/12 02:16:31;;;;;;;16.00;2.77;;;12.00;99.90;;;;;;5094644;28;20413;-47
2023/10/12 02:18:58;;;;;;;19.60;3.37;;;12.00;99.90;;;;;;5094777;28;20406;-46
2023/10/12 02:21:25;;;;;;;20.07;3.17;;;12.00;99.90;;;;;;5095220;28;20484;-46
2023/10/12 02:24:11;;;;;;;12.20;2.73;;;12.00;99.90;;;;;;5094238;28;20465;-46
2023/10/12 02:26:40;;;;;;;18.10;3.03;;;11.90;99.90;;;;;;5094742;28;20426;-46
2023/10/12 02:31:39;;;;;;;15.83;3.40;;;11.90;99.90;;;;;;5094564;28;20894;-47
2023/10/12 02:34:05;;;;;;;16.73;3.50;;;11.90;99.90;;;;;;5094249;28;20808;-46
2023/10/12 02:36:31;;;;;;;15.87;2.93;;;11.90;99.90;;;;;;5094434;28;20419;-46
2023/10/12 02:39:00;;;;;;;20.00;2.80;;;11.90;99.90;;;;;;5094463;28;20782;-53
2023/10/12 02:41:26;;;;;;;25.43;2.60;;;11.90;99.90;;;;;;5094428;28;20238;-46
2023/10/12 02:43:55;;;;;;;21.30;3.50;;;11.80;99.90;;;;;;5094210;28;20496;-46
2023/10/12 02:46:22;;;;;;;15.60;2.80;;;11.80;99.90;;;;;;5093795;28;20651;-46
2023/10/12 02:48:50;;;;;;;25.03;3.27;;;11.90;99.90;;;;;;5094195;28;20751;-46
2023/10/12 02:51:22;;;;;;;16.30;3.00;;;11.80;99.90;;;;;;5094291;28;20418;-47
2023/10/12 02:53:48;;;;;;;14.63;2.47;;;11.80;99.90;;;;;;5094131;28;20481;-48
2023/10/12 02:56:17;;;;;;;20.47;3.17;;;11.80;99.90;;;;;;5094078;28;20539;-46
2023/10/12 02:58:45;;;;;;;21.40;2.73;;;11.80;99.90;;;;;;5094121;28;20507;-46
2023/10/12 03:01:16;;;;;;;14.63;2.60;;;11.80;99.90;;;;;;5093386;28;20516;-47
2023/10/12 03:03:48;;;;;;;18.10;3.33;;;11.80;99.90;;;;;;5093759;28;20410;-47
2023/10/12 03:06:20;;;;;;;16.50;3.80;;;11.80;99.90;;;;;;5093740;28;20543;-46
2023/10/12 03:09:01;;;;;;;20.03;3.83;;;11.80;99.90;;;;;;5093977;28;20419;-47
2023/10/12 03:11:27;;;;;;;16.60;2.83;;;11.80;99.90;;;;;;5093967;28;20790;-50
2023/10/12 03:14:00;;;;;;;24.93;4.23;;;11.80;99.90;;;;;;5093669;28;20416;-46
2023/10/12 03:16:41;;;;;;;16.10;2.87;;;11.80;99.90;;;;;;5093927;28;20406;-47
2023/10/12 03:21:51;;;;;;;11.83;2.90;;;11.90;99.90;;;;;;5093942;28;20455;-46
2023/10/12 03:24:25;;;;;;;15.90;3.00;;;11.90;99.90;;;;;;5093403;28;20471;-46
2023/10/12 03:29:29;;;;;;;18.10;3.40;;;11.80;99.90;;;;;;5093640;28;20412;-48
2023/10/12 03:31:58;;;;;;;20.60;3.53;;;11.80;99.90;;;;;;5093441;28;20418;-46
2023/10/12 03:34:53;;;;;;;12.50;3.07;;;11.90;99.90;;;;;;5093406;28;20515;-46
2023/10/12 03:37:44;;;;;;;17.73;3.27;;;11.90;99.90;;;;;;5093513;28;20433;-48
2023/10/12 03:40:50;;;;;;;15.43;3.20;;;11.90;99.90;;;;;;5093187;28;20426;-46
2023/10/12 03:43:12;;;;;;;29.50;4.03;;;11.90;99.90;;;;;;5093037;28;20422;-47
2023/10/12 03:48:49;;;;;;;22.83;2.90;;;11.90;99.90;;;;;;5080674;28;20416;-46
2023/10/12 03:51:25;;;;;;;16.73;2.77;;;11.90;99.90;;;;;;5093491;28;20409;-46
2023/10/12 03:53:57;;;;;;;17.00;3.33;;;11.90;99.90;;;;;;5093243;28;20879;-46
2023/10/12 03:56:28;;;;;;;15.90;2.80;;;11.90;99.90;;;;;;5093268;28;20399;-46
2023/10/12 03:59:02;;;;;;;24.40;3.50;;;11.90;99.90;;;;;;5093449;28;20415;-47
2023/10/12 04:01:30;;;;;;;19.30;4.10;;;11.90;99.90;;;;;;5093227;28;20425;-47
2023/10/12 04:04:08;;;;;;;21.53;3.90;;;11.90;99.90;;;;;;5093447;28;20422;-47
2023/10/12 04:06:56;;;;;;;26.07;3.90;;;11.80;99.90;;;;;;5093494;28;20407;-46
2023/10/12 04:09:31;;;;;;;19.47;3.70;;;11.90;99.90;;;;;;5092961;28;20438;-46
2023/10/12 04:12:15;;;;;;;16.63;3.10;;;11.90;99.90;;;;;;5093354;28;20459;-47
2023/10/12 04:14:49;;;;;;;19.33;4.67;;;11.90;99.90;;;;;;5095208;28;20870;-46
2023/10/12 04:18:06;;;;;;;21.00;4.47;;;11.90;99.90;;;;;;5097119;28;20406;-46
2023/10/12 04:22:54;;;;;;;25.03;4.33;;;11.90;99.90;;;;;;5097144;28;20421;-46
2023/10/12 04:33:27;;;;;;;10.97;3.10;;;11.90;99.90;;;;;;5096861;28;20469;-47
2023/10/12 04:36:09;;;;;;;14.23;2.93;;;11.90;99.90;;;;;;5096839;28;20468;-47
2023/10/12 04:41:25;;;;;;;18.40;3.33;;;11.90;99.90;;;;;;5096777;28;20405;-48
2023/10/12 04:43:53;;;;;;;28.70;3.37;;;11.90;99.90;;;;;;5096498;28;20411;-47
2023/10/12 04:48:49;;;;;;;24.50;4.63;;;11.90;99.90;;;;;;5096596;28;20426;-49
2023/10/12 04:51:21;;;;;;;23.03;4.30;;;11.90;99.90;;;;;;5096863;28;20881;-48
2023/10/12 04:53:57;;;;;;;21.77;4.20;;;12.00;99.90;;;;;;5096668;28;20429;-47
2023/10/12 04:56:25;;;;;;;24.43;4.13;;;12.00;99.90;;;;;;5097069;28;20507;-48
2023/10/12 04:58:57;;;;;;;18.73;3.97;;;12.00;99.90;;;;;;5096347;28;20415;-48
2023/10/12 05:01:40;;;;;;;22.43;4.10;;;12.00;99.90;;;;;;5096466;28;20399;-47
2023/10/12 05:04:09;;;;;;;22.60;4.53;;;12.00;99.90;;;;;;5096589;28;20407;-50
2023/10/12 05:06:48;;;;;;;18.33;3.77;;;12.00;99.90;;;;;;5097905;28;20431;-48
2023/10/12 05:09:18;;;;;;;16.93;3.80;;;12.00;99.90;;;;;;5098249;28;20414;-48
2023/10/12 05:11:46;;;;;;;19.83;3.97;;;12.10;99.90;;;;;;5098148;28;20482;-48
2023/10/12 05:14:15;;;;;;;14.83;3.87;;;12.10;99.90;;;;;;5096206;28;20426;-47
2023/10/12 05:16:45;;;;;;;22.07;5.10;;;12.10;99.90;;;;;;5096185;28;20442;-48
2023/10/12 05:19:11;;;;;;;25.47;4.70;;;12.10;99.90;;;;;;5096229;28;20421;-47
2023/10/12 05:21:38;;;;;;;21.40;4.07;;;12.00;99.90;;;;;;5095589;28;20442;-48
2023/10/12 05:24:03;;;;;;;18.40;3.37;;;12.10;99.90;;;;;;5095746;28;20844;-47
2023/10/12 05:26:30;;;;;;;17.27;3.30;;;12.10;99.90;;;;;;5095666;28;20494;-48
2023/10/12 05:29:17;;;;;;;15.00;3.17;;;12.10;99.90;;;;;;5095792;28;20202;-47
2023/10/12 05:31:48;;;;;;;18.37;3.00;;;12.10;99.90;;;;;;5095713;28;20424;-48
2023/10/12 05:34:44;;;;;;;21.60;3.60;;;12.10;99.90;;;;;;5095783;28;20410;-47
2023/10/12 05:39:47;;;;;;;19.20;3.10;;;12.00;99.90;;;;;;5095707;28;20436;-48
2023/10/12 05:42:14;;;;;;;19.70;3.13;;;12.00;99.90;;;;;;5095615;28;20404;-47
2023/10/12 05:44:43;;;;;;;14.43;2.97;;;12.00;99.90;;;;;;5095415;28;20745;-47
2023/10/12 05:47:12;;;;;;;18.33;3.33;;;12.10;99.90;;;;;;5095178;28;20418;-47
2023/10/12 05:49:40;;;;;;;16.63;4.07;;;12.00;99.90;;;;;;5094454;28;20414;-48
2023/10/12 05:52:09;;;;;;;16.07;2.90;;;12.00;99.90;;;;;;5095458;28;20906;-48
2023/10/12 05:54:38;;;;;;;20.53;3.70;;;12.00;99.90;;;;;;5095062;28;20462;-48
2023/10/12 05:57:16;;;;;;;16.80;3.83;;;12.00;99.90;;;;;;5095311;28;20410;-48
2023/10/12 05:59:42;;;;;;;14.57;3.40;;;12.00;99.90;;;;;;5095287;28;20413;-48
2023/10/12 06:02:09;;;;;;;18.90;3.00;;;12.00;99.90;;;;;;5095359;28;20813;-48
2023/10/12 06:04:35;;;;;;;15.00;3.20;;;12.00;99.90;;;;;;5095194;28;20200;-48
2023/10/12 06:07:00;;;;;;;15.23;4.13;;;12.00;99.90;;;;;;5095189;28;20771;-48
2023/10/12 06:09:35;;;;;;;18.20;3.60;;;11.90;99.90;;;;;;5094952;28;20185;-48
2023/10/12 06:12:06;;;;;;;21.20;3.90;;;11.90;99.90;;;;;;5094862;28;20177;-48
2023/10/12 06:14:32;;;;;;;23.70;3.83;;;11.90;99.90;;;;;;5095038;28;20477;-48
2023/10/12 06:17:02;;;;;;;16.37;4.13;;;12.00;99.90;;;;;;5094846;28;20421;-48
2023/10/12 06:19:31;;;;;;;11.03;3.00;;;12.00;99.90;;;;;;5094837;28;20421;-48
2023/10/12 06:22:00;;;;;;;17.20;3.70;;;11.90;99.90;;;;;;5094466;28;20446;-48
2023/10/12 06:24:35;;;;;;;20.00;4.43;;;12.00;99.90;;;;;;5094521;28;20472;-48
2023/10/12 06:27:11;;;;;;;24.50;4.23;;;12.00;99.90;;;;;;5094732;28;20470;-48
2023/10/12 06:29:37;;;;;;;16.23;4.67;;;12.00;99.90;;;;;;5094576;28;20409;-48
2023/10/12 06:32:09;;;;;;;20.87;3.47;;;12.00;99.90;;;;;;5094731;28;20498;-48
2023/10/12 06:34:35;;;;;;;15.80;3.77;;;12.10;99.90;;;;;;5094132;28;20216;-47
2023/10/12 06:37:31;;;;;;;19.20;4.80;;;12.10;99.90;;;;;;5094224;28;20423;-48
2023/10/12 06:42:37;;;;;;;17.30;3.77;;;12.20;99.90;;;;;;5094390;28;20889;-47
2023/10/12 06:45:06;;;;;;;11.67;2.97;;;12.20;99.90;;;;;;5093858;28;20409;-47
2023/10/12 06:47:41;;;;;;;15.33;3.50;;;12.20;99.90;;;;;;5094385;28;20767;-47
2023/10/12 06:50:17;;;;;;;17.97;3.50;;;12.30;99.90;;;;;;5094446;28;20410;-48
2023/10/12 06:52:43;;;;;;;19.07;3.43;;;12.30;99.90;;;;;;5093981;28;20410;-48
2023/10/12 06:55:09;;;;;;;10.53;2.50;;;12.30;99.90;;;;;;5093775;28;20450;-48
2023/10/12 06:57:43;;;;;;;20.03;3.00;;;12.30;99.90;;;;;;5094218;28;20197;-49
2023/10/12 07:02:35;;;;;;;23.67;3.63;;;12.30;99.90;;;;;;5093341;28;20930;-48
2023/10/12 07:05:04;;;;;;;11.03;2.50;;;12.40;99.90;;;;;;5093759;28;20477;-48
2023/10/12 07:12:47;;;;;;;16.83;2.77;;;12.50;99.90;;;;;;5093753;28;20409;-48
2023/10/12 07:15:23;;;;;;;12.47;2.63;;;12.50;99.90;;;;;;5093703;28;20454;-48
2023/10/12 07:17:53;;;;;;;13.87;2.97;;;12.60;99.90;;;;;;5093609;28;20916;-48
2023/10/12 07:20:40;;;;;;;13.33;2.50;;;12.50;99.90;;;;;;5093612;28;20472;-48
2023/10/12 07:23:14;;;;;;;17.20;3.00;;;12.50;99.90;;;;;;5093663;28;20453;-48
2023/10/12 07:25:45;;;;;;;16.30;3.23;;;12.60;99.90;;;;;;5093008;28;20902;-48
2023/10/12 07:28:18;;;;;;;10.57;2.77;;;12.60;99.90;;;;;;5093481;28;20723;-49
2023/10/12 07:30:43;;;;;;;15.10;3.30;;;12.60;99.90;;;;;;5093846;28;20458;-47
2023/10/12 07:33:09;;;;;;;14.80;2.83;;;12.70;99.90;;;;;;5093105;28;21000;-47
2023/10/12 07:35:38;;;;;;;17.40;2.90;;;12.70;99.90;;;;;;5093079;28;20201;-47
2023/10/12 07:38:14;;;;;;;12.67;2.70;;;12.80;99.90;;;;;;5093789;28;20192;-48
2023/10/12 07:40:52;;;;;;;10.43;2.10;;;12.90;99.90;;;;;;5093771;28;20468;-47
2023/10/12 07:43:19;;;;;;;13.07;3.20;;;13.10;99.90;;;;;;5093086;28;20926;-47
2023/10/12 07:45:48;;;;;;;13.53;2.57;;;13.30;46.10;;;;;;5093277;28;20411;-49
2023/10/12 07:48:29;;;;;;;15.70;2.83;;;13.60;7.90;;;;;;5091739;28;20426;-47
2023/10/12 07:50:56;;;;;;;15.53;2.90;;;14.00;33.50;;;;;;5096818;28;20442;-48
2023/10/12 07:53:24;;;;;;;15.63;2.60;;;14.80;82.50;;;;;;5096918;28;20414;-48
2023/10/12 07:55:53;;;;;;;9.57;2.80;;;15.80;99.90;;;;;;5097273;28;20872;-47
2023/10/12 07:58:21;;;;;;;9.97;3.00;;;17.20;1.00;;;;;;5097544;28;20423;-48
2023/10/12 08:03:39;;;;;;;8.77;2.50;;;19.20;1.00;;;;;;5085017;28;20477;-49
2023/10/12 08:06:08;;;;;;;13.80;2.50;;;20.00;1.00;;;;;;5097480;28;20864;-50
2023/10/12 08:08:34;;;;;;;9.00;2.37;;;20.30;1.00;;;;;;5097278;28;20422;-50
2023/10/12 08:11:09;;;;;;;9.90;2.70;;;20.60;1.00;;;;;;5097386;28;20404;-50
2023/10/12 08:13:39;;;;;;;8.50;2.50;;;20.60;1.00;;;;;;5096905;28;20889;-49
2023/10/12 08:16:12;;;;;;;13.27;2.70;;;20.00;1.00;;;;;;5097109;28;20462;-50
2023/10/12 08:21:31;;;;;;;9.53;1.97;;;18.70;1.00;;;;;;5097072;28;20466;-52
2023/10/12 08:26:50;;;;;;;8.07;2.30;;;17.20;1.00;;;;;;5097123;28;20410;-51
2023/10/12 08:39:37;;;;;;;11.77;2.30;;;16.70;1.00;;;;;;5096531;28;20472;-51
2023/10/12 08:44:49;;;;;;;11.60;2.83;;;16.30;1.00;;;;;;5096722;28;20420;-49
2023/10/12 08:50:05;;;;;;;17.57;2.83;;;16.30;1.00;;;;;;5096769;28;20785;-49
2023/10/12 08:52:36;;;;;;;95.07;55.10;;;16.20;1.00;;;;;;5096693;28;20430;-48
2023/10/12 08:55:11;;;;;;;13.53;3.27;;;16.30;1.00;;;;;;5096208;28;20546;-52
2023/10/12 08:57:43;;;;;;;8.70;3.13;;;16.40;1.00;;;;;;5096641;28;20432;-50
2023/10/12 09:00:42;;;;;;;13.87;3.30;;;16.40;1.00;;;;;;5095664;28;20481;-50
2023/10/12 09:05:51;;;;;;;10.73;2.40;;;16.20;1.00;;;;;;5096505;28;20407;-49
2023/10/12 09:10:51;;;;;;;12.73;2.27;;;16.00;1.00;;;;;;5096172;28;20431;-49
2023/10/12 09:13:22;;;;;;;9.07;2.20;;;15.90;1.00;;;;;;5096189;28;20404;-49
2023/10/12 09:15:54;;;;;;;13.50;2.27;;;15.70;1.00;;;;;;5095826;28;20560;-48
2023/10/12 09:18:24;;;;;;;10.87;2.37;;;15.60;1.00;;;;;;5095720;28;20812;-51
2023/10/12 09:21:15;;;;;;;10.43;2.33;;;15.60;1.00;;;;;;5095689;28;20416;-51
2023/10/12 09:23:49;;;;;;;12.27;2.63;;;15.50;1.00;;;;;;5096024;28;20514;-51
2023/10/12 09:26:15;;;;;;;11.17;2.30;;;15.50;1.00;;;;;;5096122;28;20445;-51
2023/10/12 09:29:42;;;;;;;14.40;2.83;;;15.50;1.00;;;;;;5096141;28;20467;-50
2023/10/12 09:36:43;;;;;;;14.23;2.97;;;15.60;1.00;;;;;;5095585;28;20427;-50
2023/10/12 09:39:13;;;;;;;10.87;2.13;;;15.60;1.00;;;;;;5095775;28;20888;-49
2023/10/12 09:41:41;;;;;;;14.20;2.60;;;15.40;1.00;;;;;;5095469;28;20447;-50
2023/10/12 09:44:11;;;;;;;10.30;2.67;;;15.50;1.00;;;;;;5095529;28;20473;-49
2023/10/12 09:46:37;;;;;;;11.30;2.63;;;15.50;1.00;;;;;;5095629;28;20409;-50
2023/10/12 09:49:06;;;;;;;7.33;2.00;;;15.50;1.00;;;;;;5095195;28;20500;-51
2023/10/12 09:51:45;;;;;;;15.33;2.30;;;15.40;1.00;;;;;;5095376;28;20420;-51
2023/10/12 09:54:18;;;;;;;13.03;2.30;;;15.50;1.00;;;;;;5095365;28;20408;-51
2023/10/12 09:56:57;;;;;;;12.03;2.87;;;15.50;1.00;;;;;;5095429;28;20534;-50
2023/10/12 09:59:23;;;;;;;17.07;2.60;;;15.60;1.00;;;;;;5094972;28;20483;-50
2023/10/12 10:01:49;;;;;;;19.90;2.70;;;15.70;1.00;;;;;;5095120;28;20534;-51
2023/10/12 10:09:48;;;;;;;8.10;1.77;;;16.20;1.00;;;;;;5095293;28;20450;-50
2023/10/12 10:12:18;;;;;;;13.23;2.60;;;16.50;1.00;;;;;;5094224;28;20419;-51
2023/10/12 10:14:46;;;;;;;23.17;2.50;;;16.60;1.00;;;;;;5094426;28;20509;-51
2023/10/12 10:17:15;;;;;;;12.00;3.27;;;16.50;1.00;;;;;;5094900;28;20456;-50
2023/10/12 10:19:51;;;;;;;10.03;2.53;;;16.50;1.00;;;;;;5095028;28;20420;-53
2023/10/12 10:22:18;;;;;;;8.90;2.30;;;16.70;1.00;;;;;;5094836;28;20415;-49
2023/10/12 10:24:46;;;;;;;6.33;1.90;;;16.70;1.00;;;;;;5094235;28;20471;-49
2023/10/12 10:27:14;;;;;;;11.10;2.53;;;16.90;1.00;;;;;;5094567;28;20475;-48
2023/10/12 10:29:56;;;;;;;14.17;2.20;;;17.30;1.00;;;;;;5094476;28;20414;-50
2023/10/12 10:32:36;;;;;;;13.47;2.00;;;17.80;1.00;;;;;;5094534;28;20413;-48
2023/10/12 10:35:08;;;;;;;9.30;2.20;;;18.40;1.00;;;;;;5094566;28;20460;-51
2023/10/12 10:37:39;;;;;;;13.37;2.23;;;19.00;1.00;;;;;;5094028;28;20426;-50
2023/10/12 10:40:09;;;;;;;11.23;2.30;;;19.50;1.00;;;;;;5094346;28;20419;-49
2023/10/12 10:42:36;;;;;;;11.67;2.73;;;20.10;1.00;;;;;;5094215;28;20498;-48
2023/10/12 10:45:15;;;;;;;10.53;2.83;;;20.60;1.00;;;;;;5094413;28;20800;-50
2023/10/12 10:47:49;;;;;;;7.50;2.37;;;21.10;1.00;;;;;;5094004;28;20410;-50
2023/10/12 10:50:15;;;;;;;12.37;3.30;;;21.20;1.00;;;;;;5094590;28;20502;-50
2023/10/12 10:52:44;;;;;;;8.17;2.33;;;21.50;1.00;;;;;;5093948;28;20899;-50
2023/10/12 10:55:11;;;;;;;7.40;2.00;;;21.10;1.00;;;;;;5094170;28;20459;-51
2023/10/12 10:57:39;;;;;;;9.27;2.10;;;21.10;1.00;;;;;;5094049;28;20542;-51
2023/10/12 11:00:16;;;;;;;10.03;2.10;;;21.40;1.00;;;;;;5094154;28;20419;-49
2023/10/12 11:02:44;;;;;;;12.00;2.63;;;21.40;1.00;;;;;;5094411;28;20411;-51
2023/10/12 11:05:19;;;;;;;8.33;1.97;;;21.60;1.00;;;;;;5094247;28;20843;-50
2023/10/12 11:07:50;;;;;;;7.90;1.93;;;21.40;1.00;;;;;;5094081;28;20414;-51
2023/10/12 11:10:19;;;;;;;8.13;2.10;;;21.00;1.00;;;;;;5094121;28;20403;-51
2023/10/12 11:12:45;;;;;;;11.23;2.33;;;20.70;1.00;;;;;;5093725;28;20417;-51
2023/10/12 11:15:11;;;;;;;9.83;2.80;;;20.50;1.00;;;;;;5093180;28;20455;-52
2023/10/12 11:17:55;;;;;;;16.70;2.80;;;20.50;1.00;;;;;;5093687;28;20195;-50
2023/10/12 11:20:27;;;;;;;5.00;1.70;;;20.60;1.00;;;;;;5093995;28;20407;-53
2023/10/12 11:22:57;;;;;;;9.33;2.30;;;20.80;1.00;;;;;;5093663;28;20415;-52
2023/10/12 11:25:26;;;;;;;10.60;1.93;;;20.90;1.00;;;;;;5093410;28;20486;-53
2023/10/12 11:27:53;;;;;;;10.80;2.53;;;21.20;1.00;;;;;;5093847;28;20415;-53
2023/10/12 11:30:35;;;;;;;8.70;1.93;;;21.50;1.00;;;;;;5093389;28;20410;-52
2023/10/12 11:33:07;;;;;;;9.63;2.30;;;22.00;1.00;;;;;;5092117;28;20814;-52
2023/10/12 11:35:43;;;;;;;13.23;2.23;;;22.00;1.00;;;;;;5093113;28;20605;-54
2023/10/12 11:38:20;;;;;;;5.77;1.90;;;21.80;1.00;;;;;;5093536;28;20411;-54
2023/10/12 11:40:53;;;;;;;7.43;2.00;;;21.40;1.00;;;;;;5093605;28;20404;-52
2023/10/12 11:43:29;;;;;;;11.17;2.17;;;21.20;1.00;;;;;;5093695;28;20404;-52
2023/10/12 11:46:01;;;;;;;14.10;1.93;;;21.10;1.00;;;;;;5093543;28;20408;-54
2023/10/12 11:48:27;;;;;;;10.10;1.87;;;21.00;1.00;;;;;;5093530;28;20410;-54
2023/10/12 11:50:53;;;;;;;11.17;2.90;;;20.80;1.00;;;;;;5093559;28;20445;-53
2023/10/12 11:53:19;;;;;;;15.20;1.97;;;20.30;1.00;;;;;;5093265;28;20186;-54
2023/10/12 11:55:47;;;;;;;10.07;2.23;;;19.90;1.00;;;;;;5093015;28;20514;-54
2023/10/12 11:58:17;;;;;;;13.97;2.33;;;19.80;1.00;;;;;;5093720;28;20571;-54
2023/10/12 12:00:48;;;;;;;6.97;1.80;;;19.70;1.00;;;;;;5091823;28;20416;-54
2023/10/12 12:03:15;;;;;;;15.37;2.47;;;20.10;1.00;;;;;;5093558;28;20916;-54
2023/10/12 12:05:43;;;;;;;4.77;1.70;;;20.20;1.00;;;;;;5093282;28;20477;-53
2023/10/12 12:08:15;;;;;;;7.23;1.83;;;19.80;1.00;;;;;;5093528;28;20415;-53
2023/10/12 12:10:45;;;;;;;7.47;1.90;;;19.90;1.00;;;;;;5093470;28;20407;-53
2023/10/12 12:13:12;;;;;;;9.30;1.90;;;20.10;1.00;;;;;;5093080;28;20980;-52
2023/10/12 12:15:44;;;;;;;9.00;1.80;;;20.20;1.00;;;;;;5093443;28;20458;-52
2023/10/12 12:18:19;;;;;;;14.50;2.10;;;19.90;1.00;;;;;;5093013;28;20876;-52
2023/10/12 12:20:51;;;;;;;7.33;2.10;;;19.60;1.00;;;;;;5093717;28;20404;-52
2023/10/12 12:23:18;;;;;;;7.70;1.90;;;19.80;1.00;;;;;;5093550;28;20410;-52
2023/10/12 12:25:44;;;;;;;12.90;2.03;;;20.10;1.00;;;;;;5093696;28;20498;-52
2023/10/12 12:28:14;;;;;;;16.00;3.20;;;20.40;1.00;;;;;;5092725;28;20419;-53
2023/10/12 12:30:55;;;;;;;6.77;1.83;;;20.50;1.00;;;;;;5093201;28;20414;-51
2023/10/12 12:33:22;;;;;;;7.23;2.20;;;20.30;1.00;;;;;;5093015;28;20431;-52
2023/10/12 12:35:48;;;;;;;11.73;2.23;;;20.30;1.00;;;;;;5095758;28;20459;-56
2023/10/12 12:40:59;;;;;;;8.67;2.23;;;19.80;1.00;;;;;;5097065;28;20170;-53
2023/10/12 12:43:25;;;;;;;12.70;2.10;;;19.80;1.00;;;;;;5096560;28;20934;-55
2023/10/12 12:45:52;;;;;;;10.40;1.80;;;19.50;1.00;;;;;;5096430;28;20418;-52
2023/10/12 12:48:19;;;;;;;10.57;2.30;;;19.20;1.00;;;;;;5096577;28;20192;-53
2023/10/12 12:50:47;;;;;;;7.57;2.70;;;19.60;1.00;;;;;;5096555;28;20557;-53
2023/10/12 12:53:18;;;;;;;11.90;2.30;;;19.60;1.00;;;;;;5096404;28;20436;-52
2023/10/12 12:55:46;;;;;;;10.83;1.60;;;19.50;1.00;;;;;;5096641;28;20482;-52
2023/10/12 12:58:15;;;;;;;5.33;1.63;;;19.00;1.00;;;;;;5096404;28;20415;-53
2023/10/12 13:00:48;;;;;;;12.83;2.03;;;18.40;1.00;;;;;;5096242;28;20974;-53
2023/10/12 13:03:15;;;;;;;10.23;2.13;;;17.90;1.00;;;;;;5096121;28;20400;-54
2023/10/12 13:05:41;;;;;;;9.80;2.80;;;17.30;1.00;;;;;;5096217;28;20422;-53
2023/10/12 13:08:07;;;;;;;6.60;1.83;;;16.80;1.00;;;;;;5096338;28;20409;-54
2023/10/12 13:10:35;;;;;;;10.33;2.07;;;16.70;1.00;;;;;;5096125;28;20195;-54
2023/10/12 13:13:01;;;;;;;10.67;2.10;;;16.60;1.00;;;;;;5095969;28;20418;-52
2023/10/12 13:15:27;;;;;;;7.97;1.57;;;17.30;1.00;;;;;;5096063;28;20481;-53
2023/10/12 13:17:56;;;;;;;9.17;1.77;;;18.30;1.00;;;;;;5095716;28;20410;-55
2023/10/12 13:20:21;;;;;;;8.40;2.07;;;18.60;1.00;;;;;;5095741;28;20468;-54
2023/10/12 13:22:49;;;;;;;10.53;2.20;;;19.00;1.00;;;;;;5095632;28;20408;-53
2023/10/12 13:25:20;;;;;;;14.77;1.67;;;19.40;1.00;;;;;;5095531;28;20323;-52
2023/10/12 13:27:49;;;;;;;9.37;1.90;;;20.00;1.00;;;;;;5095837;28;20444;-54
2023/10/12 13:30:15;;;;;;;9.07;2.00;;;20.40;1.00;;;;;;5095810;28;20411;-54
2023/10/12 13:32:47;;;;;;;8.40;1.77;;;19.90;1.00;;;;;;5095965;28;20428;-53
2023/10/12 13:38:09;;;;;;;7.53;1.70;;;18.80;1.00;;;;;;5086225;28;20500;-53
2023/10/12 13:40:43;;;;;;;12.00;1.67;;;19.50;1.00;;;;;;5095768;28;20439;-53
2023/10/12 13:43:18;;;;;;;15.73;6.30;;;19.90;1.00;;;;;;5095200;28;20882;-52
2023/10/12 13:45:48;;;;;;;8.27;2.97;;;19.60;1.00;;;;;;5095559;28;20410;-53
2023/10/12 13:48:21;;;;;;;9.90;2.37;;;19.10;1.00;;;;;;5095088;28;20502;-52
2023/10/12 13:51:19;;;;;;;8.00;1.60;;;19.30;1.00;;;;;;5095338;28;20434;-53
2023/10/12 13:53:46;;;;;;;6.13;2.60;;;20.10;1.00;;;;;;5095154;28;20892;-53
2023/10/12 13:56:12;;;;;;;10.13;1.70;;;20.90;1.00;;;;;;5094906;28;20883;-53
2023/10/12 13:58:44;;;;;;;10.30;1.87;;;21.40;1.00;;;;;;5095080;28;20414;-53
2023/10/12 14:01:18;;;;;;;8.30;1.90;;;21.80;1.00;;;;;;5095431;28;20427;-53
2023/10/12 14:04:00;;;;;;;5.57;1.80;;;22.20;1.00;;;;;;5094832;28;20934;-52
2023/10/12 14:06:27;;;;;;;7.87;1.53;;;22.20;1.00;;;;;;5095058;28;20407;-51
2023/10/12 14:08:54;;;;;;;7.03;1.47;;;22.20;1.00;;;;;;5094776;28;20411;-51
2023/10/12 14:11:20;;;;;;;9.20;1.57;;;22.20;1.00;;;;;;5094656;28;20488;-51
2023/10/12 14:13:46;;;;;;;12.80;2.00;;;22.20;1.00;;;;;;5094607;28;20742;-53
2023/10/12 14:16:14;;;;;;;9.63;1.80;;;22.00;1.00;;;;;;5094427;28;20304;-53
2023/10/12 14:18:41;;;;;;;6.33;1.47;;;21.50;1.00;;;;;;5094838;28;20408;-53
2023/10/12 14:21:11;;;;;;;10.70;1.63;;;21.00;1.00;;;;;;5095428;28;20416;-51
2023/10/12 14:23:45;;;;;;;14.10;1.90;;;20.50;1.00;;;;;;5094827;28;20412;-50
2023/10/12 14:26:17;;;;;;;11.77;1.80;;;20.20;1.00;;;;;;5094980;28;20528;-53
2023/10/12 14:28:45;;;;;;;5.60;1.70;;;19.90;1.00;;;;;;5094532;28;20836;-52
2023/10/12 14:31:11;;;;;;;9.27;1.67;;;19.40;1.00;;;;;;5094545;28;20427;-52